createdAt,value
2023-04-16T00:04:58.271Z,101980.16
2023-04-16T00:09:59.850Z,101974.03
2023-04-16T00:15:01.284Z,101967.97
2023-04-16T00:20:02.932Z,101968.78
2023-04-16T00:25:05.095Z,101969.88
2023-04-16T00:30:07.560Z,101967.06
2023-04-16T00:35:09.148Z,101971.47
2023-04-16T00:40:11.173Z,101960.09
2023-04-16T00:45:12.630Z,101962.00
2023-04-16T00:50:14.357Z,101964.50
2023-04-16T00:55:18.648Z,101960.03
2023-04-16T01:00:21.298Z,101966.25
2023-04-16T01:05:22.881Z,101961.06
2023-04-16T01:10:24.340Z,101962.03
2023-04-16T01:15:25.769Z,101962.81
2023-04-16T01:20:27.133Z,101968.03
2023-04-16T01:25:28.543Z,101972.56
2023-04-16T01:30:29.962Z,101963.06
2023-04-16T01:35:31.397Z,101963.91
2023-04-16T01:40:32.782Z,101955.34
2023-04-16T01:45:35.101Z,101952.91
2023-04-16T01:50:37.630Z,101958.03
2023-04-16T01:55:39.076Z,101952.00
2023-04-16T02:00:40.532Z,101964.22
2023-04-16T02:05:42.001Z,101960.78
2023-04-16T02:10:46.424Z,101975.28
2023-04-16T02:15:49.064Z,101972.00
2023-04-16T02:20:50.612Z,101963.50
2023-04-16T02:25:52.048Z,101955.81
2023-04-16T02:30:53.475Z,101957.38
2023-04-16T02:35:54.880Z,101954.84
2023-04-16T02:40:56.347Z,101962.59
2023-04-16T02:45:59.307Z,101960.91
2023-04-16T02:51:01.033Z,101963.63
2023-04-16T02:56:02.501Z,101960.97
2023-04-16T03:01:04.139Z,101972.00
2023-04-16T03:06:05.684Z,101979.84
2023-04-16T03:11:07.572Z,101973.03
2023-04-16T03:16:09.036Z,101979.13
2023-04-16T03:21:10.556Z,101982.59
2023-04-16T03:26:11.960Z,101985.97
2023-04-16T03:31:13.517Z,101983.34
2023-04-16T03:36:14.918Z,101986.53
2023-04-16T03:41:16.458Z,101986.69
2023-04-16T03:46:17.894Z,101993.59
2023-04-16T03:51:19.493Z,101985.72
2023-04-16T03:56:21.087Z,101990.66
2023-04-16T04:01:22.475Z,101983.13
2023-04-16T04:06:23.886Z,101988.06
2023-04-16T04:11:25.292Z,101986.47
2023-04-16T04:16:26.737Z,101982.88
2023-04-16T04:21:29.132Z,101997.66
2023-04-16T04:26:30.632Z,102006.19
2023-04-16T04:31:32.258Z,101997.44
2023-04-16T04:36:33.698Z,102000.84
2023-04-16T04:41:36.048Z,102005.16
2023-04-16T04:46:37.497Z,102017.16
2023-04-16T04:51:38.904Z,102013.66
2023-04-16T04:56:40.355Z,102011.19
2023-04-16T05:01:42.163Z,102022.44
2023-04-16T05:06:44.148Z,102024.06
2023-04-16T05:11:45.498Z,102031.06
2023-04-16T05:16:47.475Z,102026.81
2023-04-16T05:21:49.105Z,102022.59
2023-04-16T05:26:50.684Z,102023.41
2023-04-16T05:31:53.025Z,102029.44
2023-04-16T05:36:54.642Z,102031.13
2023-04-16T05:41:56.150Z,102038.94
2023-04-16T05:46:57.582Z,102041.72
2023-04-16T05:51:59.256Z,102039.25
2023-04-16T05:57:01.803Z,102044.41
2023-04-16T06:02:03.317Z,102044.41
2023-04-16T06:07:04.768Z,102059.41
2023-04-16T06:12:06.476Z,102051.75
2023-04-16T06:17:07.908Z,102061.25
2023-04-16T06:22:09.882Z,102076.97
2023-04-16T06:27:11.414Z,102071.75
2023-04-16T06:32:12.909Z,102070.44
2023-04-16T06:37:14.957Z,102080.13
2023-04-16T06:42:16.449Z,102083.03
2023-04-16T06:47:17.945Z,102091.78
2023-04-16T06:52:19.403Z,102098.63
2023-04-16T06:57:20.901Z,102104.22
2023-04-16T07:02:22.460Z,102118.06
2023-04-16T07:07:24.047Z,102131.09
2023-04-16T07:12:25.686Z,102128.72
2023-04-16T07:17:27.185Z,102127.84
2023-04-16T07:22:28.617Z,102133.13
2023-04-16T07:27:30.089Z,102134.28
2023-04-16T07:32:31.563Z,102143.81
2023-04-16T07:37:33.003Z,102145.88
2023-04-16T07:42:34.869Z,102155.66
2023-04-16T07:47:36.767Z,102159.88
2023-04-16T07:52:41.310Z,102170.78
2023-04-16T07:57:42.888Z,102180.28
2023-04-16T08:02:44.592Z,102177.09
2023-04-16T08:07:46.479Z,102172.47
2023-04-16T08:12:48.083Z,102189.03
2023-04-16T08:17:49.530Z,102196.19
2023-04-16T08:22:51.124Z,102197.50
2023-04-16T08:27:52.596Z,102201.06
2023-04-16T08:32:54.376Z,102213.28
2023-04-16T08:37:57.822Z,102208.66
2023-04-16T08:43:02.747Z,102225.38
2023-04-16T08:48:06.159Z,102233.75
2023-04-16T08:53:11.341Z,102240.97
2023-04-16T08:58:15.439Z,102243.50
2023-04-16T09:03:17.033Z,102247.28
2023-04-16T09:08:18.641Z,102258.75
2023-04-16T09:13:22.231Z,102249.41
2023-04-16T09:18:24.544Z,102247.91
2023-04-16T09:23:25.937Z,102255.00
2023-04-16T09:28:45.562Z,102250.16
2023-04-16T09:34:05.501Z,102258.38
2023-04-16T09:39:07.064Z,102258.09
2023-04-16T09:44:08.562Z,102274.19
2023-04-16T09:49:13.452Z,102272.53
2023-04-16T09:54:15.884Z,102274.53
2023-04-16T09:59:18.291Z,102273.41
2023-04-16T10:04:20.428Z,102266.16
2023-04-16T10:09:23.004Z,102264.16
2023-04-16T10:14:24.499Z,102268.47
2023-04-16T10:19:27.139Z,102265.28
2023-04-16T10:24:30.034Z,102266.28
2023-04-16T10:29:32.865Z,102269.53
2023-04-16T10:34:35.199Z,102263.88
2023-04-16T10:39:39.589Z,102269.25
2023-04-16T10:44:44.412Z,102265.94
2023-04-16T10:49:48.315Z,102262.97
2023-04-16T10:54:52.531Z,102270.38
2023-04-16T10:59:55.075Z,102268.72
2023-04-16T11:04:57.526Z,102262.91
2023-04-16T11:10:13.438Z,102259.34
2023-04-16T11:15:16.656Z,102262.81
2023-04-16T11:20:24.234Z,102258.06
2023-04-16T11:25:34.352Z,102251.53
2023-04-16T11:30:40.590Z,102253.25
2023-04-16T11:35:44.394Z,102249.44
2023-04-16T11:40:57.108Z,102245.47
2023-04-16T11:46:02.559Z,102251.72
2023-04-16T11:51:05.378Z,102258.03
2023-04-16T11:56:07.219Z,102249.03
2023-04-16T12:01:10.193Z,102263.84
2023-04-16T12:06:13.276Z,102267.06
2023-04-16T12:11:16.680Z,102271.16
2023-04-16T12:16:21.227Z,102267.22
2023-04-16T12:21:22.857Z,102281.19
2023-04-16T12:26:25.609Z,102283.34
2023-04-16T12:31:40.295Z,102285.88
2023-04-16T12:36:42.611Z,102290.00
2023-04-16T12:41:44.633Z,102292.00
2023-04-16T12:46:47.433Z,102295.53
2023-04-16T12:51:49.228Z,102300.88
2023-04-16T12:56:54.156Z,102300.53
2023-04-16T13:01:55.806Z,102292.66
2023-04-16T13:06:57.666Z,102298.41
2023-04-16T13:11:59.261Z,102296.06
2023-04-16T13:17:01.572Z,102291.41
2023-04-16T13:22:03.294Z,102290.66
2023-04-16T13:27:06.795Z,102277.56
2023-04-16T13:32:13.698Z,102274.75
2023-04-16T13:37:15.272Z,102270.78
2023-04-16T13:42:16.895Z,102270.00
2023-04-16T13:47:26.857Z,102256.69
2023-04-16T13:52:45.296Z,102250.34
2023-04-16T13:57:49.195Z,102257.06
2023-04-16T14:02:55.019Z,102260.84
2023-04-16T14:07:56.710Z,102270.00
2023-04-16T14:12:58.483Z,102278.97
2023-04-16T14:18:01.226Z,102276.13
2023-04-16T14:23:03.573Z,102276.44
2023-04-16T14:28:05.057Z,102279.56
2023-04-16T14:33:11.036Z,102283.34
2023-04-16T14:38:12.888Z,102276.44
2023-04-16T14:43:15.065Z,102265.13
2023-04-16T14:48:16.678Z,102275.63
2023-04-16T14:53:18.941Z,102266.44
2023-04-16T14:58:22.317Z,102263.63
2023-04-16T15:03:25.774Z,102263.94
2023-04-16T15:08:27.408Z,102261.56
2023-04-16T15:13:33.939Z,102260.66
2023-04-16T15:18:36.032Z,102272.19
2023-04-16T15:23:42.648Z,102280.09
2023-04-16T15:28:46.851Z,102285.78
2023-04-16T15:33:49.335Z,102281.44
2023-04-16T15:38:51.239Z,102279.84
2023-04-16T15:43:54.824Z,102286.19
2023-04-16T15:48:59.068Z,102281.06
2023-04-16T15:54:00.916Z,102271.94
2023-04-16T15:59:08.841Z,102284.53
2023-04-16T16:04:14.380Z,102289.09
2023-04-16T16:09:17.616Z,102279.41
2023-04-16T16:14:24.436Z,102269.91
2023-04-16T16:19:31.179Z,102278.88
2023-04-16T16:24:32.859Z,102287.25
2023-04-16T16:29:38.614Z,102287.13
2023-04-16T16:34:40.230Z,102298.00
2023-04-16T16:39:41.782Z,102297.69
2023-04-16T16:44:43.223Z,102304.81
2023-04-16T16:49:44.995Z,102312.56
2023-04-16T16:54:46.766Z,102316.75
2023-04-16T16:59:48.570Z,102318.69
2023-04-16T17:04:50.295Z,102318.16
2023-04-16T17:09:51.766Z,102313.19
2023-04-16T17:14:53.255Z,102313.19
2023-04-16T17:19:54.817Z,102312.44
2023-04-16T17:24:56.257Z,102313.66
2023-04-16T17:30:01.155Z,102313.75
2023-04-16T17:35:04.173Z,102324.31
2023-04-16T17:40:07.719Z,102323.97
2023-04-16T17:45:09.439Z,102324.38
2023-04-16T17:50:11.895Z,102342.28
2023-04-16T17:55:13.413Z,102334.34
2023-04-16T18:00:16.137Z,102333.94
2023-04-16T18:05:18.939Z,102337.88
2023-04-16T18:10:20.437Z,102350.22
2023-04-16T18:15:21.861Z,102352.97
2023-04-16T18:20:23.322Z,102362.22
2023-04-16T18:25:33.680Z,102367.88
2023-04-16T18:30:39.918Z,102362.53
2023-04-16T18:35:42.094Z,102375.19
2023-04-16T18:40:46.797Z,102374.91
2023-04-16T18:45:48.361Z,102383.91
2023-04-16T18:50:49.901Z,102387.47
2023-04-16T18:55:54.804Z,102389.03
2023-04-16T19:00:59.873Z,102396.97
2023-04-16T19:06:04.166Z,102400.84
2023-04-16T19:11:07.124Z,102396.16
2023-04-16T19:16:11.689Z,102408.47
2023-04-16T19:21:13.578Z,102402.97
2023-04-16T19:26:15.822Z,102406.97
2023-04-16T19:31:17.377Z,102408.72
2023-04-16T19:36:21.202Z,102409.47
2023-04-16T19:41:22.716Z,102408.66
2023-04-16T19:46:27.262Z,102414.81
2023-04-16T19:51:28.759Z,102414.41
2023-04-16T19:56:33.427Z,102418.59
2023-04-16T20:01:35.334Z,102423.44
2023-04-16T20:06:41.337Z,102420.28
2023-04-16T20:11:43.369Z,102426.41
2023-04-16T20:16:45.276Z,102428.69
2023-04-16T20:21:48.001Z,102437.72
2023-04-16T20:26:53.453Z,102440.47
2023-04-16T20:31:55.048Z,102435.31
2023-04-16T20:37:00.986Z,102441.13
2023-04-16T20:42:04.287Z,102439.81
2023-04-16T20:47:09.664Z,102438.44
2023-04-16T20:52:17.343Z,102440.84
2023-04-16T20:57:19.010Z,102436.13
2023-04-16T21:02:22.448Z,102426.38
2023-04-16T21:07:24.412Z,102430.88
2023-04-16T21:12:26.542Z,102433.47
2023-04-16T21:17:31.808Z,102431.06
2023-04-16T21:22:33.397Z,102428.47
2023-04-16T21:27:34.876Z,102432.75
2023-04-16T21:32:41.251Z,102430.47
2023-04-16T21:37:45.074Z,102421.50
2023-04-16T21:42:48.044Z,102428.31
2023-04-16T21:47:52.982Z,102425.16
2023-04-16T21:52:54.798Z,102426.94
2023-04-16T21:57:58.537Z,102421.97
2023-04-16T22:03:00.221Z,102420.50
2023-04-16T22:08:08.193Z,102415.53
2023-04-16T22:13:23.028Z,102413.59
2023-04-16T22:18:25.745Z,102429.81
2023-04-16T22:23:27.313Z,102427.00
2023-04-16T22:28:28.779Z,102435.53
2023-04-16T22:33:33.528Z,102427.94
2023-04-16T22:38:36.007Z,102435.53
2023-04-16T22:43:41.905Z,102435.38
2023-04-16T22:48:44.591Z,102431.91
2023-04-16T22:53:46.034Z,102437.44
2023-04-16T22:58:49.412Z,102432.47
2023-04-16T23:03:59.958Z,102438.13
2023-04-16T23:09:05.204Z,102442.78
2023-04-16T23:14:07.593Z,102431.84
2023-04-16T23:19:14.717Z,102431.53
2023-04-16T23:24:17.094Z,102425.16
2023-04-16T23:29:18.783Z,102422.38
2023-04-16T23:34:20.310Z,102428.22
2023-04-16T23:39:21.756Z,102425.91
2023-04-16T23:44:23.369Z,102432.25
2023-04-16T23:49:24.948Z,102432.56
2023-04-16T23:54:26.324Z,102430.91
2023-04-16T23:59:27.732Z,102432.25
